createdAt,value
2017-11-27T00:01:50.156Z,4.80
2017-11-27T00:04:16.323Z,4.80
2017-11-27T00:06:42.572Z,4.80
2017-11-27T00:09:09.576Z,4.80
2017-11-27T00:11:35.761Z,4.80
2017-11-27T00:14:03.073Z,4.80
2017-11-27T00:16:30.028Z,4.70
2017-11-27T00:18:56.211Z,4.70
2017-11-27T00:21:22.480Z,4.80
2017-11-27T00:23:49.501Z,4.80
2017-11-27T00:26:15.832Z,4.80
2017-11-27T00:28:42.052Z,4.80
2017-11-27T00:31:08.249Z,4.80
2017-11-27T00:33:35.275Z,4.90
2017-11-27T00:36:02.283Z,4.80
2017-11-27T00:38:28.473Z,4.80
2017-11-27T00:40:54.699Z,4.80
2017-11-27T00:43:20.972Z,4.70
2017-11-27T00:45:47.172Z,4.70
2017-11-27T00:48:13.420Z,4.70
2017-11-27T00:50:39.679Z,4.80
2017-11-27T00:53:06.597Z,4.70
2017-11-27T00:55:32.800Z,4.70
2017-11-27T00:57:59.068Z,4.70
2017-11-27T01:00:25.355Z,4.70
2017-11-27T01:02:51.546Z,4.80
2017-11-27T01:05:18.501Z,4.70
2017-11-27T01:07:45.449Z,4.70
2017-11-27T01:10:12.372Z,4.60
2017-11-27T01:12:39.330Z,4.60
2017-11-27T01:15:06.242Z,4.70
2017-11-27T01:17:32.451Z,4.70
2017-11-27T01:19:58.688Z,4.80
2017-11-27T01:22:24.901Z,4.60
2017-11-27T01:24:51.173Z,4.70
2017-11-27T01:27:18.168Z,4.50
2017-11-27T01:29:44.397Z,4.50
2017-11-27T01:32:10.680Z,4.40
2017-11-27T01:34:37.716Z,4.60
2017-11-27T01:37:03.984Z,4.60
2017-11-27T01:39:30.280Z,4.50
2017-11-27T01:41:56.532Z,4.60
2017-11-27T01:44:23.489Z,4.70
2017-11-27T01:46:50.406Z,4.60
2017-11-27T01:49:17.391Z,4.40
2017-11-27T01:51:43.633Z,4.40
2017-11-27T01:54:09.913Z,4.40
2017-11-27T01:56:36.908Z,4.40
2017-11-27T01:59:03.102Z,4.50
2017-11-27T02:01:30.147Z,4.40
2017-11-27T02:03:57.437Z,4.30
2017-11-27T02:06:23.633Z,4.30
2017-11-27T02:08:50.544Z,4.40
2017-11-27T02:11:18.026Z,4.40
2017-11-27T02:13:44.936Z,4.40
2017-11-27T02:16:11.136Z,4.30
2017-11-27T02:18:37.335Z,4.40
2017-11-27T02:21:04.364Z,4.40
2017-11-27T02:23:31.361Z,4.50
2017-11-27T02:25:57.548Z,4.50
2017-11-27T02:28:24.476Z,4.50
2017-11-27T02:30:50.625Z,4.50
2017-11-27T02:33:17.629Z,4.50
2017-11-27T02:35:45.506Z,4.50
2017-11-27T02:38:11.737Z,4.50
2017-11-27T02:40:37.926Z,4.50
2017-11-27T02:43:04.206Z,4.50
2017-11-27T02:45:30.411Z,4.50
2017-11-27T02:47:56.591Z,4.60
2017-11-27T02:50:24.013Z,4.50
2017-11-27T02:52:50.241Z,4.50
2017-11-27T02:55:16.395Z,4.50
2017-11-27T02:57:43.396Z,4.50
2017-11-27T03:00:09.644Z,4.50
2017-11-27T03:02:36.627Z,4.40
2017-11-27T03:05:13.655Z,4.40
2017-11-27T03:07:39.917Z,4.40
2017-11-27T03:10:06.197Z,4.30
2017-11-27T03:12:32.517Z,4.40
2017-11-27T03:14:58.772Z,4.60
2017-11-27T03:17:25.001Z,4.40
2017-11-27T03:19:51.252Z,4.40
2017-11-27T03:22:18.205Z,4.20
2017-11-27T03:24:45.172Z,4.30
2017-11-27T03:27:11.394Z,4.30
2017-11-27T03:29:38.405Z,4.30
2017-11-27T03:32:04.689Z,4.30
2017-11-27T03:34:30.988Z,4.50
2017-11-27T03:36:57.970Z,4.50
2017-11-27T03:39:24.257Z,4.50
2017-11-27T03:41:51.244Z,4.60
2017-11-27T03:44:17.420Z,4.60
2017-11-27T03:46:43.630Z,4.70
2017-11-27T03:53:55.275Z,4.50
2017-11-27T03:56:22.241Z,4.40
2017-11-27T03:58:49.237Z,4.40
2017-11-27T04:01:15.490Z,4.30
2017-11-27T04:03:42.484Z,4.40
2017-11-27T04:06:08.733Z,4.50
2017-11-27T04:08:34.966Z,4.50
2017-11-27T04:11:01.211Z,4.40
2017-11-27T04:13:27.437Z,4.40
2017-11-27T04:15:53.725Z,4.40
2017-11-27T04:18:19.947Z,4.30
2017-11-27T04:20:46.278Z,4.40
2017-11-27T04:23:12.579Z,4.40
2017-11-27T04:25:39.503Z,4.50
2017-11-27T04:28:05.764Z,4.50
2017-11-27T04:30:32.759Z,4.40
2017-11-27T04:32:59.061Z,4.30
2017-11-27T04:35:25.281Z,4.40
2017-11-27T04:37:52.244Z,4.40
2017-11-27T04:40:18.473Z,4.40
2017-11-27T04:42:46.304Z,4.50
2017-11-27T04:45:12.562Z,4.50
2017-11-27T04:47:38.833Z,4.40
2017-11-27T04:50:05.128Z,4.30
2017-11-27T04:52:31.294Z,4.20
2017-11-27T04:54:57.504Z,4.20
2017-11-27T04:57:23.757Z,4.20
2017-11-27T04:59:55.688Z,4.10
2017-11-27T05:02:23.201Z,4.10
2017-11-27T05:04:50.247Z,4.20
2017-11-27T05:07:17.182Z,4.10
2017-11-27T05:09:43.373Z,4.20
2017-11-27T05:12:09.581Z,4.20
2017-11-27T05:14:35.743Z,4.20
2017-11-27T05:17:01.969Z,4.20
2017-11-27T05:19:28.276Z,4.20
2017-11-27T05:21:54.525Z,4.30
2017-11-27T05:24:20.763Z,4.30
2017-11-27T05:26:46.951Z,4.20
2017-11-27T05:29:13.184Z,4.30
2017-11-27T05:31:39.369Z,4.30
2017-11-27T05:34:05.624Z,4.30
2017-11-27T05:36:31.849Z,4.30
2017-11-27T05:38:58.808Z,4.30
2017-11-27T05:41:25.047Z,4.20
2017-11-27T05:43:51.290Z,4.10
2017-11-27T05:46:17.571Z,4.10
2017-11-27T05:48:44.524Z,3.90
2017-11-27T05:51:10.793Z,3.90
2017-11-27T05:53:37.011Z,4.00
2017-11-27T05:56:03.148Z,4.00
2017-11-27T05:58:29.346Z,4.00
2017-11-27T06:00:55.536Z,4.10
2017-11-27T06:03:22.569Z,4.00
2017-11-27T06:05:48.808Z,4.00
2017-11-27T06:08:15.716Z,4.00
2017-11-27T06:10:41.926Z,4.00
2017-11-27T06:13:08.130Z,4.00
2017-11-27T06:15:35.065Z,4.00
2017-11-27T06:18:02.077Z,4.10
2017-11-27T06:20:28.288Z,4.10
2017-11-27T06:22:54.509Z,3.90
2017-11-27T06:25:20.676Z,4.00
2017-11-27T06:27:46.864Z,4.10
2017-11-27T06:30:13.020Z,4.10
2017-11-27T06:32:39.467Z,4.20
2017-11-27T06:35:07.277Z,4.30
2017-11-27T06:37:34.341Z,4.30
2017-11-27T06:40:00.827Z,4.30
2017-11-27T06:42:27.009Z,4.40
2017-11-27T06:44:53.289Z,4.30
2017-11-27T06:47:20.264Z,4.50
2017-11-27T06:49:46.528Z,4.40
2017-11-27T06:52:12.748Z,4.50
2017-11-27T06:54:38.989Z,4.50
2017-11-27T06:57:05.204Z,4.60
2017-11-27T06:59:31.437Z,4.50
2017-11-27T07:01:57.637Z,4.30
2017-11-27T07:04:23.863Z,4.20
2017-11-27T07:06:50.052Z,4.10
2017-11-27T07:09:16.289Z,4.20
2017-11-27T07:11:43.260Z,4.10
2017-11-27T07:14:09.576Z,4.10
2017-11-27T07:16:35.782Z,4.20
2017-11-27T07:19:02.723Z,4.30
2017-11-27T07:21:29.665Z,4.40
2017-11-27T07:23:55.873Z,4.40
2017-11-27T07:26:22.131Z,4.30
2017-11-27T07:28:49.086Z,4.20
2017-11-27T07:31:16.017Z,4.10
2017-11-27T07:33:42.957Z,4.10
2017-11-27T07:36:09.881Z,4.00
2017-11-27T07:38:42.280Z,4.00
2017-11-27T07:41:08.458Z,4.00
2017-11-27T07:43:34.730Z,3.90
2017-11-27T07:46:01.665Z,4.00
2017-11-27T07:48:27.875Z,4.00
2017-11-27T07:50:54.127Z,3.80
2017-11-27T07:53:20.494Z,3.70
2017-11-27T07:55:47.445Z,4.00
2017-11-27T07:58:13.730Z,3.90
2017-11-27T08:00:40.828Z,4.00
2017-11-27T08:03:07.058Z,4.00
2017-11-27T08:05:33.326Z,4.10
2017-11-27T08:07:59.689Z,4.10
2017-11-27T08:10:25.924Z,4.10
2017-11-27T08:12:52.903Z,4.40
2017-11-27T08:15:19.830Z,4.40
2017-11-27T08:17:46.107Z,4.30
2017-11-27T08:20:12.422Z,4.20
2017-11-27T08:22:38.698Z,4.20
2017-11-27T08:25:05.628Z,4.30
2017-11-27T08:27:32.634Z,4.30
2017-11-27T08:29:58.868Z,4.30
2017-11-27T08:32:25.085Z,4.30
2017-11-27T08:34:51.631Z,4.20
2017-11-27T08:37:17.867Z,4.10
2017-11-27T08:39:44.061Z,4.00
2017-11-27T08:42:10.621Z,4.00
2017-11-27T08:44:36.814Z,3.90
2017-11-27T08:47:03.815Z,3.80
2017-11-27T08:49:30.075Z,3.80
2017-11-27T08:51:56.340Z,3.90
2017-11-27T08:54:22.555Z,3.80
2017-11-27T08:56:49.545Z,3.90
2017-11-27T08:59:15.768Z,3.90
2017-11-27T09:01:41.934Z,3.80
2017-11-27T09:04:08.845Z,3.80
2017-11-27T09:06:35.122Z,3.80
2017-11-27T09:09:02.197Z,3.70
2017-11-27T09:11:28.430Z,3.60
2017-11-27T09:13:54.745Z,3.70
2017-11-27T09:16:20.988Z,3.70
2017-11-27T09:18:47.258Z,3.60
2017-11-27T09:21:13.449Z,3.50
2017-11-27T09:23:39.692Z,3.70
2017-11-27T09:26:05.863Z,3.80
2017-11-27T09:28:32.947Z,3.90
2017-11-27T09:30:59.148Z,3.90
2017-11-27T09:33:26.238Z,4.00
2017-11-27T09:35:52.512Z,4.00
2017-11-27T09:38:19.535Z,4.20
2017-11-27T09:40:45.782Z,4.10
2017-11-27T09:43:11.998Z,4.20
2017-11-27T09:45:38.192Z,4.00
2017-11-27T09:48:04.441Z,3.90
2017-11-27T09:50:30.765Z,4.10
2017-11-27T09:52:57.035Z,3.80
2017-11-27T09:55:23.277Z,3.90
2017-11-27T09:57:50.270Z,4.20
2017-11-27T10:00:16.598Z,4.20
2017-11-27T10:02:42.818Z,4.20
2017-11-27T10:05:09.030Z,4.10
2017-11-27T10:07:35.301Z,4.10
2017-11-27T10:10:02.251Z,4.10
2017-11-27T10:12:28.503Z,4.10
2017-11-27T10:14:55.538Z,4.10
2017-11-27T10:17:22.565Z,4.30
2017-11-27T10:19:48.830Z,4.30
2017-11-27T10:22:15.881Z,4.30
2017-11-27T10:24:42.921Z,4.20
2017-11-27T10:27:09.958Z,4.20
2017-11-27T10:29:36.185Z,4.20
2017-11-27T10:32:03.215Z,4.40
2017-11-27T10:34:29.509Z,4.40
2017-11-27T10:36:55.760Z,4.50
2017-11-27T10:39:22.039Z,4.60
2017-11-27T10:41:49.082Z,5.40
2017-11-27T10:44:16.064Z,5.70
2017-11-27T10:46:42.342Z,5.60
2017-11-27T10:49:08.596Z,5.70
2017-11-27T10:51:35.575Z,6.50
2017-11-27T10:54:01.839Z,6.40
2017-11-27T10:56:28.861Z,5.90
2017-11-27T10:58:55.066Z,5.90
2017-11-27T11:01:21.276Z,5.40
2017-11-27T11:03:47.568Z,5.00
2017-11-27T11:06:14.581Z,5.00
2017-11-27T11:08:40.788Z,5.00
2017-11-27T11:11:06.998Z,5.00
2017-11-27T11:13:34.024Z,4.70
2017-11-27T11:16:01.025Z,4.70
2017-11-27T11:18:27.296Z,4.70
2017-11-27T11:20:54.274Z,4.60
2017-11-27T11:23:21.268Z,4.60
2017-11-27T11:25:47.565Z,4.60
2017-11-27T11:28:13.835Z,4.70
2017-11-27T11:30:40.098Z,4.60
2017-11-27T11:33:07.102Z,4.80
2017-11-27T11:35:33.360Z,4.80
2017-11-27T11:38:00.357Z,5.50
2017-11-27T11:40:26.651Z,5.50
2017-11-27T11:42:53.676Z,5.60
2017-11-27T11:45:20.696Z,5.40
2017-11-27T11:47:46.949Z,5.30
2017-11-27T11:50:13.914Z,5.40
2017-11-27T11:52:40.850Z,5.30
2017-11-27T11:55:07.154Z,5.30
2017-11-27T11:57:33.402Z,5.10
2017-11-27T12:00:00.404Z,5.10
2017-11-27T12:02:26.684Z,5.10
2017-11-27T12:04:52.885Z,5.00
2017-11-27T12:07:19.121Z,4.90
2017-11-27T12:09:45.357Z,4.80
2017-11-27T12:12:11.530Z,4.80
2017-11-27T12:14:37.784Z,4.80
2017-11-27T12:17:04.048Z,4.70
2017-11-27T12:19:30.263Z,4.60
2017-11-27T12:21:56.495Z,4.60
2017-11-27T12:24:22.730Z,4.70
2017-11-27T12:26:49.006Z,4.80
2017-11-27T12:29:15.272Z,4.80
2017-11-27T12:31:41.606Z,4.80
2017-11-27T12:34:07.864Z,4.90
2017-11-27T12:36:34.831Z,5.00
2017-11-27T12:39:01.151Z,4.90
2017-11-27T12:41:28.128Z,5.10
2017-11-27T12:43:54.403Z,5.10
2017-11-27T12:46:21.372Z,5.10
2017-11-27T12:48:48.416Z,5.20
2017-11-27T12:51:15.385Z,5.00
2017-11-27T12:53:41.673Z,5.00
2017-11-27T12:56:07.924Z,5.00
2017-11-27T12:58:34.909Z,4.90
2017-11-27T13:01:01.112Z,5.00
2017-11-27T13:03:28.136Z,4.90
2017-11-27T13:05:54.403Z,4.90
2017-11-27T13:08:20.690Z,4.90
2017-11-27T13:10:47.650Z,5.00
2017-11-27T13:13:14.611Z,4.90
2017-11-27T13:15:40.902Z,4.90
2017-11-27T13:18:07.174Z,4.80
2017-11-27T13:20:33.393Z,4.70
2017-11-27T13:23:00.406Z,4.60
2017-11-27T13:25:26.667Z,4.60
2017-11-27T13:27:53.646Z,4.60
2017-11-27T13:30:19.879Z,4.60
2017-11-27T13:32:46.202Z,4.60
2017-11-27T13:35:12.425Z,4.60
2017-11-27T13:37:38.708Z,4.60
2017-11-27T13:40:04.967Z,4.70
2017-11-27T13:42:31.176Z,4.70
2017-11-27T13:44:58.223Z,4.50
2017-11-27T13:47:25.204Z,4.50
2017-11-27T13:49:51.517Z,4.50
2017-11-27T13:52:17.784Z,4.50
2017-11-27T13:54:44.065Z,4.40
2017-11-27T13:57:11.053Z,4.30
2017-11-27T13:59:37.331Z,4.30
2017-11-27T14:02:03.569Z,4.20
2017-11-27T14:04:31.434Z,4.20
2017-11-27T14:06:58.466Z,4.20
2017-11-27T14:09:25.650Z,4.10
2017-11-27T14:11:51.855Z,4.10
2017-11-27T14:14:18.816Z,4.10
2017-11-27T14:16:45.907Z,4.10
2017-11-27T14:19:12.082Z,4.10
2017-11-27T14:21:39.053Z,4.20
2017-11-27T14:24:05.789Z,4.10
2017-11-27T14:26:32.005Z,4.20
2017-11-27T14:28:58.211Z,4.10
2017-11-27T14:31:25.142Z,4.00
2017-11-27T14:33:51.358Z,4.00
2017-11-27T14:36:17.619Z,3.90
2017-11-27T14:38:44.682Z,3.80
2017-11-27T14:41:11.737Z,3.80
2017-11-27T14:43:38.101Z,3.80
2017-11-27T14:46:04.350Z,3.90
2017-11-27T14:48:30.540Z,3.90
2017-11-27T14:50:56.828Z,3.80
2017-11-27T14:53:23.105Z,3.90
2017-11-27T14:55:49.415Z,3.90
2017-11-27T14:58:15.684Z,3.80
2017-11-27T15:00:41.985Z,3.90
2017-11-27T15:03:08.202Z,3.80
2017-11-27T15:05:34.457Z,3.80
2017-11-27T15:08:00.774Z,3.80
2017-11-27T15:10:27.057Z,3.80
2017-11-27T15:12:53.321Z,3.80
2017-11-27T15:15:19.614Z,3.80
2017-11-27T15:17:46.613Z,3.80
2017-11-27T15:20:12.861Z,3.80
2017-11-27T15:22:39.097Z,3.80
2017-11-27T15:25:05.396Z,3.80
2017-11-27T15:27:31.674Z,3.80
2017-11-27T15:29:57.912Z,3.90
2017-11-27T15:32:24.181Z,3.90
2017-11-27T15:34:50.471Z,3.90
2017-11-27T15:37:17.449Z,3.80
2017-11-27T15:39:43.693Z,3.80
2017-11-27T15:42:09.965Z,3.80
2017-11-27T15:44:36.218Z,3.80
2017-11-27T15:47:03.170Z,3.70
2017-11-27T15:49:30.234Z,3.70
2017-11-27T15:51:56.505Z,3.70
2017-11-27T15:54:22.717Z,3.70
2017-11-27T15:56:49.025Z,3.80
2017-11-27T15:59:15.319Z,3.80
2017-11-27T16:01:42.397Z,3.80
2017-11-27T16:04:08.674Z,3.70
2017-11-27T16:06:34.982Z,3.80
2017-11-27T16:09:01.282Z,3.80
2017-11-27T16:11:27.535Z,3.80
2017-11-27T16:13:53.815Z,3.80
2017-11-27T16:16:20.806Z,4.20
2017-11-27T16:18:47.134Z,4.10
2017-11-27T16:21:13.413Z,4.20
2017-11-27T16:23:40.390Z,4.00
2017-11-27T16:26:06.649Z,4.00
2017-11-27T16:28:32.916Z,3.90
2017-11-27T16:30:59.188Z,3.90
2017-11-27T16:33:25.427Z,4.00
2017-11-27T16:35:51.708Z,3.90
2017-11-27T16:38:18.777Z,3.90
2017-11-27T16:40:45.786Z,4.00
2017-11-27T16:43:12.038Z,4.00
2017-11-27T16:45:39.064Z,4.00
2017-11-27T16:48:05.306Z,4.00
2017-11-27T16:50:32.323Z,3.90
2017-11-27T16:52:58.572Z,3.90
2017-11-27T16:55:26.298Z,4.00
2017-11-27T16:57:52.614Z,4.00
2017-11-27T17:00:18.906Z,4.10
2017-11-27T17:02:45.889Z,4.00
2017-11-27T17:05:12.184Z,4.00
2017-11-27T17:07:39.188Z,4.00
2017-11-27T17:10:05.481Z,4.00
2017-11-27T17:12:31.706Z,4.00
2017-11-27T17:14:58.721Z,4.10
2017-11-27T17:17:25.749Z,4.20
2017-11-27T17:19:51.964Z,4.10
2017-11-27T17:22:18.229Z,4.10
2017-11-27T17:24:45.314Z,4.10
2017-11-27T17:27:11.624Z,4.10
2017-11-27T17:29:38.605Z,4.00
2017-11-27T17:32:04.874Z,4.00
2017-11-27T17:34:31.116Z,4.10
2017-11-27T17:36:58.145Z,4.20
2017-11-27T17:39:24.472Z,4.10
2017-11-27T17:41:50.809Z,4.10
2017-11-27T17:44:17.132Z,4.10
2017-11-27T17:46:44.171Z,4.10
2017-11-27T17:49:10.780Z,4.10
2017-11-27T17:51:37.058Z,4.20
2017-11-27T17:54:03.396Z,4.20
2017-11-27T17:56:30.391Z,4.20
2017-11-27T17:58:56.678Z,4.10
2017-11-27T18:01:23.656Z,4.10
2017-11-27T18:03:49.997Z,4.00
2017-11-27T18:06:16.226Z,4.10
2017-11-27T18:08:42.507Z,4.10
2017-11-27T18:11:09.488Z,4.10
2017-11-27T18:13:35.795Z,4.10
2017-11-27T18:16:02.812Z,4.10
2017-11-27T18:18:29.121Z,4.10
2017-11-27T18:20:55.334Z,4.10
2017-11-27T18:23:21.643Z,4.10
2017-11-27T18:25:48.657Z,4.10
2017-11-27T18:28:14.879Z,4.10
2017-11-27T18:30:41.247Z,4.10
2017-11-27T18:33:08.265Z,4.10
2017-11-27T18:35:34.525Z,4.10
2017-11-27T18:38:01.579Z,4.00
2017-11-27T18:40:28.655Z,4.00
2017-11-27T18:42:54.920Z,4.00
2017-11-27T18:45:21.959Z,4.10
2017-11-27T18:47:48.255Z,4.00
2017-11-27T18:50:14.532Z,4.10
2017-11-27T18:52:41.582Z,4.20
2017-11-27T18:55:07.846Z,4.20
2017-11-27T18:57:34.172Z,4.10
2017-11-27T19:00:01.262Z,4.10
2017-11-27T19:02:27.579Z,4.10
2017-11-27T19:04:53.819Z,4.10
2017-11-27T19:07:20.164Z,4.10
2017-11-27T19:09:46.483Z,4.10
2017-11-27T19:12:12.758Z,4.20
2017-11-27T19:14:40.019Z,4.20
2017-11-27T19:17:07.146Z,4.20
2017-11-27T19:19:33.413Z,4.20
2017-11-27T19:21:59.763Z,4.20
2017-11-27T19:24:25.982Z,4.30
2017-11-27T19:26:52.337Z,4.30
2017-11-27T19:29:18.609Z,4.30
2017-11-27T19:31:45.653Z,4.20
2017-11-27T19:34:12.641Z,4.30
2017-11-27T19:36:38.950Z,4.20
2017-11-27T19:39:05.217Z,4.20
2017-11-27T19:41:31.514Z,4.20
2017-11-27T19:43:57.805Z,4.20
2017-11-27T19:46:24.897Z,4.20
2017-11-27T19:48:51.107Z,4.20
2017-11-27T19:51:18.102Z,4.20
2017-11-27T19:53:44.357Z,4.20
2017-11-27T19:56:10.631Z,4.20
2017-11-27T19:58:36.873Z,4.30
2017-11-27T20:01:03.141Z,4.30
2017-11-27T20:03:29.394Z,4.20
2017-11-27T20:05:56.471Z,4.20
2017-11-27T20:08:22.713Z,4.20
2017-11-27T20:10:48.955Z,4.20
2017-11-27T20:13:15.295Z,4.20
2017-11-27T20:15:41.581Z,4.20
2017-11-27T20:18:07.788Z,4.20
2017-11-27T20:20:34.769Z,4.30
2017-11-27T20:23:01.055Z,4.30
2017-11-27T20:25:28.046Z,4.20
2017-11-27T20:27:54.299Z,4.10
2017-11-27T20:30:20.522Z,4.20
2017-11-27T20:32:46.841Z,4.20
2017-11-27T20:35:13.176Z,4.20
2017-11-27T20:37:39.448Z,4.20
2017-11-27T20:40:05.714Z,4.30
2017-11-27T20:42:32.053Z,4.20
2017-11-27T20:44:58.314Z,4.30
2017-11-27T20:47:25.376Z,4.20
2017-11-27T20:49:52.368Z,4.10
2017-11-27T20:52:18.597Z,4.10
2017-11-27T20:54:44.894Z,4.10
2017-11-27T20:57:11.898Z,4.10
2017-11-27T20:59:38.187Z,4.10
2017-11-27T21:02:06.098Z,4.10
2017-11-27T21:04:32.387Z,4.00
2017-11-27T21:06:58.693Z,4.00
2017-11-27T21:09:25.039Z,4.00
2017-11-27T21:11:51.383Z,4.10
2017-11-27T21:14:17.615Z,4.00
2017-11-27T21:16:43.925Z,4.00
2017-11-27T21:19:10.948Z,4.00
2017-11-27T21:21:38.029Z,4.00
2017-11-27T21:24:04.277Z,3.90
2017-11-27T21:26:30.494Z,4.00
2017-11-27T21:28:56.743Z,4.00
2017-11-27T21:31:23.538Z,4.00
2017-11-27T21:33:50.575Z,4.00
2017-11-27T21:36:17.536Z,4.00
2017-11-27T21:38:44.585Z,4.00
2017-11-27T21:41:11.579Z,4.00
2017-11-27T21:43:38.647Z,4.00
2017-11-27T21:46:04.938Z,4.00
2017-11-27T21:48:31.253Z,4.00
2017-11-27T21:50:57.531Z,4.00
2017-11-27T21:53:23.717Z,4.00
2017-11-27T21:55:49.963Z,4.10
2017-11-27T21:58:16.211Z,4.10
2017-11-27T22:00:42.493Z,4.10
2017-11-27T22:03:09.465Z,4.10
2017-11-27T22:05:35.633Z,4.10
2017-11-27T22:08:01.927Z,4.10
2017-11-27T22:10:28.201Z,4.10
2017-11-27T22:12:54.488Z,4.10
2017-11-27T22:15:20.779Z,4.00
2017-11-27T22:17:47.831Z,4.10
2017-11-27T22:20:14.066Z,4.10
2017-11-27T22:22:40.371Z,4.10
2017-11-27T22:25:07.406Z,4.10
2017-11-27T22:27:34.430Z,4.20
2017-11-27T22:30:00.697Z,4.10
2017-11-27T22:32:27.733Z,4.10
2017-11-27T22:34:53.960Z,4.10
2017-11-27T22:37:20.933Z,4.20
2017-11-27T22:39:48.004Z,4.20
2017-11-27T22:42:14.275Z,4.10
2017-11-27T22:44:40.521Z,4.20
2017-11-27T22:47:07.544Z,4.10
2017-11-27T22:49:33.808Z,4.20
2017-11-27T22:52:00.803Z,4.20
2017-11-27T22:54:27.067Z,4.20
2017-11-27T22:56:53.389Z,4.20
2017-11-27T22:59:19.606Z,4.30
2017-11-27T23:01:45.826Z,4.30
2017-11-27T23:04:12.030Z,4.20
2017-11-27T23:06:38.320Z,4.20
2017-11-27T23:09:05.386Z,4.20
2017-11-27T23:11:31.628Z,4.20
2017-11-27T23:13:57.888Z,4.20
2017-11-27T23:16:24.090Z,4.20
2017-11-27T23:18:50.327Z,4.20
2017-11-27T23:21:16.645Z,4.20
2017-11-27T23:23:42.883Z,4.10
2017-11-27T23:26:09.093Z,4.10
2017-11-27T23:28:35.349Z,4.10
2017-11-27T23:31:01.632Z,4.10
2017-11-27T23:33:28.604Z,4.20
2017-11-27T23:35:54.829Z,4.20
2017-11-27T23:38:21.072Z,4.20
2017-11-27T23:40:47.339Z,4.20
2017-11-27T23:43:14.328Z,4.20
2017-11-27T23:45:41.331Z,4.20
2017-11-27T23:48:07.573Z,4.20
2017-11-27T23:50:34.598Z,4.20
2017-11-27T23:53:00.916Z,4.20
2017-11-27T23:55:27.262Z,4.20
2017-11-27T23:57:53.592Z,4.20
